CheckWX is a tool to help pilots better visualize weather data.  It is not intended as a substitute for an official pre-flight weather briefing.

01:04:01 UTC

AYPY TAF
Port Moresby Jacksons International Airport
Port Moresby, Papua New Guinea
TAF AYPY 192207Z 2000/2024 17008KT 9999 FEW018 BKN150 FM200400 17010KT 9999 SCT020 SCT150

Apr-20@
00:00 UTC

Apr-20 @ 00:00 UTC

Apr-20@
04:00 UTC

Apr-20 @ 04:00 UTC

TAF AYPY 192207Z 2000/2024 17008KT 9999 FEW018 BKN150
Wind
  • 170° at 8 KTS
Cloud Levels
  • Few at 1,800' AGL
  • Broken at 15,000' AGL

Apr-20@
04:00 UTC

Apr-20 @ 04:00 UTC

Apr-21@
00:00 UTC

Apr-21 @ 00:00 UTC

FM200400 17010KT 9999 SCT020 SCT150

From

From Standard forecast or significant change

Wind
  • 170° at 10 KTS
Cloud Levels
  • Scattered at 2,000' AGL
  • Scattered at 15,000' AGL